sensor_id;sensor_type;location;lat;lon;timestamp;temperature;humidity
12971;DHT22;6550;48.650;8.774;2024-03-25T00:01:54;7.80;99.90
12971;DHT22;6550;48.650;8.774;2024-03-25T00:04:20;7.80;99.90
12971;DHT22;6550;48.650;8.774;2024-03-25T00:06:49;7.70;99.90
12971;DHT22;6550;48.650;8.774;2024-03-25T00:09:15;7.90;99.90
12971;DHT22;6550;48.650;8.774;2024-03-25T00:11:41;8.00;99.90
12971;DHT22;6550;48.650;8.774;2024-03-25T00:14:10;7.50;99.90
12971;DHT22;6550;48.650;8.774;2024-03-25T00:16:41;7.60;99.90
12971;DHT22;6550;48.650;8.774;2024-03-25T00:19:07;7.70;99.90
12971;DHT22;6550;48.650;8.774;2024-03-25T00:21:35;7.80;99.90
12971;DHT22;6550;48.650;8.774;2024-03-25T00:24:03;7.70;99.90
12971;DHT22;6550;48.650;8.774;2024-03-25T00:26:29;7.70;99.90
12971;DHT22;6550;48.650;8.774;2024-03-25T00:28:55;7.70;99.90
12971;DHT22;6550;48.650;8.774;2024-03-25T00:31:21;7.70;99.90
12971;DHT22;6550;48.650;8.774;2024-03-25T00:33:47;7.70;99.90
12971;DHT22;6550;48.650;8.774;2024-03-25T00:38:40;7.90;99.90
12971;DHT22;6550;48.650;8.774;2024-03-25T00:41:06;7.90;99.90
12971;DHT22;6550;48.650;8.774;2024-03-25T00:43:31;7.80;99.90
12971;DHT22;6550;48.650;8.774;2024-03-25T00:45:57;8.00;99.90
12971;DHT22;6550;48.650;8.774;2024-03-25T00:48:23;7.70;99.90
12971;DHT22;6550;48.650;8.774;2024-03-25T00:50:49;7.90;99.90
12971;DHT22;6550;48.650;8.774;2024-03-25T00:53:15;8.00;99.90
12971;DHT22;6550;48.650;8.774;2024-03-25T00:55:41;7.70;99.90
12971;DHT22;6550;48.650;8.774;2024-03-25T00:58:06;7.50;99.90
12971;DHT22;6550;48.650;8.774;2024-03-25T01:00:35;7.70;99.90
12971;DHT22;6550;48.650;8.774;2024-03-25T01:03:01;8.10;99.90
12971;DHT22;6550;48.650;8.774;2024-03-25T01:05:27;7.60;99.90
12971;DHT22;6550;48.650;8.774;2024-03-25T01:07:53;7.70;99.90
12971;DHT22;6550;48.650;8.774;2024-03-25T01:10:19;7.60;99.90
12971;DHT22;6550;48.650;8.774;2024-03-25T01:12:46;8.00;99.90
12971;DHT22;6550;48.650;8.774;2024-03-25T01:15:12;7.60;99.90
12971;DHT22;6550;48.650;8.774;2024-03-25T01:17:38;7.70;99.90
12971;DHT22;6550;48.650;8.774;2024-03-25T01:20:04;7.70;99.90
12971;DHT22;6550;48.650;8.774;2024-03-25T01:25:00;7.70;99.90
12971;DHT22;6550;48.650;8.774;2024-03-25T01:27:26;7.90;99.90
12971;DHT22;6550;48.650;8.774;2024-03-25T01:29:52;7.50;99.90
12971;DHT22;6550;48.650;8.774;2024-03-25T01:32:18;7.70;99.90
12971;DHT22;6550;48.650;8.774;2024-03-25T01:34:44;7.60;99.90
12971;DHT22;6550;48.650;8.774;2024-03-25T01:37:12;7.80;99.90
12971;DHT22;6550;48.650;8.774;2024-03-25T01:39:38;7.90;99.90
12971;DHT22;6550;48.650;8.774;2024-03-25T01:42:04;7.80;99.90
12971;DHT22;6550;48.650;8.774;2024-03-25T01:44:33;7.60;99.90
12971;DHT22;6550;48.650;8.774;2024-03-25T01:47:01;7.60;99.90
12971;DHT22;6550;48.650;8.774;2024-03-25T01:49:26;7.60;99.90
12971;DHT22;6550;48.650;8.774;2024-03-25T01:51:52;7.80;99.90
12971;DHT22;6550;48.650;8.774;2024-03-25T01:54:18;7.80;99.90
12971;DHT22;6550;48.650;8.774;2024-03-25T01:56:45;7.50;99.90
12971;DHT22;6550;48.650;8.774;2024-03-25T01:59:15;7.70;99.90
12971;DHT22;6550;48.650;8.774;2024-03-25T02:01:43;7.60;99.90
12971;DHT22;6550;48.650;8.774;2024-03-25T02:06:40;7.60;99.90
12971;DHT22;6550;48.650;8.774;2024-03-25T02:09:08;7.60;99.90
12971;DHT22;6550;48.650;8.774;2024-03-25T02:11:37;7.80;99.90
12971;DHT22;6550;48.650;8.774;2024-03-25T02:16:30;7.80;99.90
12971;DHT22;6550;48.650;8.774;2024-03-25T02:18:55;7.60;99.90
12971;DHT22;6550;48.650;8.774;2024-03-25T02:23:53;7.70;99.90
12971;DHT22;6550;48.650;8.774;2024-03-25T02:26:20;7.70;99.90
12971;DHT22;6550;48.650;8.774;2024-03-25T02:28:45;7.70;99.90
12971;DHT22;6550;48.650;8.774;2024-03-25T02:31:13;7.70;99.90
12971;DHT22;6550;48.650;8.774;2024-03-25T02:33:41;7.90;99.90
12971;DHT22;6550;48.650;8.774;2024-03-25T02:36:08;7.30;99.90
12971;DHT22;6550;48.650;8.774;2024-03-25T02:38:34;7.70;99.90
12971;DHT22;6550;48.650;8.774;2024-03-25T02:41:00;7.60;99.90
12971;DHT22;6550;48.650;8.774;2024-03-25T02:43:29;7.50;99.90
12971;DHT22;6550;48.650;8.774;2024-03-25T02:45:55;7.60;99.90
12971;DHT22;6550;48.650;8.774;2024-03-25T02:48:21;7.70;99.90
12971;DHT22;6550;48.650;8.774;2024-03-25T02:50:47;7.80;99.90
12971;DHT22;6550;48.650;8.774;2024-03-25T02:53:13;7.50;99.90
12971;DHT22;6550;48.650;8.774;2024-03-25T02:55:39;7.50;99.90
12971;DHT22;6550;48.650;8.774;2024-03-25T02:58:07;7.30;99.90
12971;DHT22;6550;48.650;8.774;2024-03-25T03:00:33;7.70;99.90
12971;DHT22;6550;48.650;8.774;2024-03-25T03:02:58;7.60;99.90
12971;DHT22;6550;48.650;8.774;2024-03-25T03:05:25;7.60;99.90
12971;DHT22;6550;48.650;8.774;2024-03-25T03:07:52;7.50;99.90
12971;DHT22;6550;48.650;8.774;2024-03-25T03:10:19;8.50;99.90
12971;DHT22;6550;48.650;8.774;2024-03-25T03:12:45;7.60;99.90
12971;DHT22;6550;48.650;8.774;2024-03-25T03:15:11;7.80;99.90
12971;DHT22;6550;48.650;8.774;2024-03-25T03:17:37;7.60;99.90
12971;DHT22;6550;48.650;8.774;2024-03-25T03:20:03;7.60;99.90
12971;DHT22;6550;48.650;8.774;2024-03-25T03:22:29;7.50;99.90
12971;DHT22;6550;48.650;8.774;2024-03-25T03:24:55;7.50;99.90
12971;DHT22;6550;48.650;8.774;2024-03-25T03:27:21;7.50;99.90
12971;DHT22;6550;48.650;8.774;2024-03-25T03:29:49;7.50;99.90
12971;DHT22;6550;48.650;8.774;2024-03-25T03:32:15;7.50;99.90
12971;DHT22;6550;48.650;8.774;2024-03-25T03:34:41;7.50;99.90
12971;DHT22;6550;48.650;8.774;2024-03-25T03:37:07;7.40;99.90
12971;DHT22;6550;48.650;8.774;2024-03-25T03:39:35;7.20;99.90
12971;DHT22;6550;48.650;8.774;2024-03-25T03:42:01;7.40;99.90
12971;DHT22;6550;48.650;8.774;2024-03-25T03:44:29;7.60;99.90
12971;DHT22;6550;48.650;8.774;2024-03-25T03:46:54;7.30;99.90
12971;DHT22;6550;48.650;8.774;2024-03-25T03:49:22;7.40;99.90
12971;DHT22;6550;48.650;8.774;2024-03-25T03:51:50;7.20;99.90
12971;DHT22;6550;48.650;8.774;2024-03-25T03:54:18;7.00;99.90
12971;DHT22;6550;48.650;8.774;2024-03-25T03:56:46;6.90;99.90
12971;DHT22;6550;48.650;8.774;2024-03-25T03:59:12;7.20;99.90
12971;DHT22;6550;48.650;8.774;2024-03-25T04:01:38;7.20;99.90
12971;DHT22;6550;48.650;8.774;2024-03-25T04:04:04;7.20;99.90
12971;DHT22;6550;48.650;8.774;2024-03-25T04:06:32;7.20;99.90
12971;DHT22;6550;48.650;8.774;2024-03-25T04:08:57;7.20;99.90
12971;DHT22;6550;48.650;8.774;2024-03-25T04:11:26;7.40;99.90
12971;DHT22;6550;48.650;8.774;2024-03-25T04:13:51;7.20;99.90
12971;DHT22;6550;48.650;8.774;2024-03-25T04:16:17;7.20;99.90
12971;DHT22;6550;48.650;8.774;2024-03-25T04:18:43;7.20;99.90
12971;DHT22;6550;48.650;8.774;2024-03-25T04:21:12;7.10;99.90
12971;DHT22;6550;48.650;8.774;2024-03-25T04:23:40;7.20;99.90
12971;DHT22;6550;48.650;8.774;2024-03-25T04:26:07;7.20;99.90
12971;DHT22;6550;48.650;8.774;2024-03-25T04:28:34;7.20;99.90
12971;DHT22;6550;48.650;8.774;2024-03-25T04:31:02;7.20;99.90
12971;DHT22;6550;48.650;8.774;2024-03-25T04:33:31;7.10;99.90
12971;DHT22;6550;48.650;8.774;2024-03-25T04:35:57;7.10;99.90
12971;DHT22;6550;48.650;8.774;2024-03-25T04:38:23;7.10;99.90
12971;DHT22;6550;48.650;8.774;2024-03-25T04:40:51;7.10;99.90
12971;DHT22;6550;48.650;8.774;2024-03-25T04:43:17;7.10;99.90
12971;DHT22;6550;48.650;8.774;2024-03-25T04:45:42;7.10;99.90
12971;DHT22;6550;48.650;8.774;2024-03-25T04:48:08;6.80;99.90
12971;DHT22;6550;48.650;8.774;2024-03-25T04:50:35;6.90;99.90
12971;DHT22;6550;48.650;8.774;2024-03-25T04:55:32;7.00;99.90
12971;DHT22;6550;48.650;8.774;2024-03-25T04:58:03;7.20;99.90
12971;DHT22;6550;48.650;8.774;2024-03-25T05:00:29;7.00;99.90
12971;DHT22;6550;48.650;8.774;2024-03-25T05:02:57;7.60;99.90
12971;DHT22;6550;48.650;8.774;2024-03-25T05:05:23;7.00;99.90
12971;DHT22;6550;48.650;8.774;2024-03-25T05:07:52;6.90;99.90
12971;DHT22;6550;48.650;8.774;2024-03-25T05:10:18;7.30;99.90
12971;DHT22;6550;48.650;8.774;2024-03-25T05:12:44;7.10;99.90
12971;DHT22;6550;48.650;8.774;2024-03-25T05:15:09;7.00;99.90
12971;DHT22;6550;48.650;8.774;2024-03-25T05:17:36;7.10;99.90
12971;DHT22;6550;48.650;8.774;2024-03-25T05:20:02;7.00;99.90
12971;DHT22;6550;48.650;8.774;2024-03-25T05:22:30;7.00;99.90
12971;DHT22;6550;48.650;8.774;2024-03-25T05:24:56;7.10;99.90
12971;DHT22;6550;48.650;8.774;2024-03-25T05:27:26;7.60;99.90
12971;DHT22;6550;48.650;8.774;2024-03-25T05:29:52;8.20;99.90
12971;DHT22;6550;48.650;8.774;2024-03-25T05:34:47;7.20;99.90
12971;DHT22;6550;48.650;8.774;2024-03-25T05:37:15;7.00;99.90
12971;DHT22;6550;48.650;8.774;2024-03-25T05:39:41;7.30;99.90
12971;DHT22;6550;48.650;8.774;2024-03-25T05:44:33;7.10;99.90
12971;DHT22;6550;48.650;8.774;2024-03-25T05:47:02;7.10;99.90
12971;DHT22;6550;48.650;8.774;2024-03-25T05:49:30;7.10;99.90
12971;DHT22;6550;48.650;8.774;2024-03-25T05:51:58;7.10;99.90
12971;DHT22;6550;48.650;8.774;2024-03-25T05:54:24;7.20;99.90
12971;DHT22;6550;48.650;8.774;2024-03-25T05:56:50;7.20;99.90
12971;DHT22;6550;48.650;8.774;2024-03-25T05:59:16;7.20;99.90
12971;DHT22;6550;48.650;8.774;2024-03-25T06:01:44;7.20;99.90
12971;DHT22;6550;48.650;8.774;2024-03-25T06:04:10;7.30;99.90
12971;DHT22;6550;48.650;8.774;2024-03-25T06:06:38;7.30;99.90
12971;DHT22;6550;48.650;8.774;2024-03-25T06:09:04;7.30;99.90
12971;DHT22;6550;48.650;8.774;2024-03-25T06:11:33;7.30;99.90
12971;DHT22;6550;48.650;8.774;2024-03-25T06:14:01;7.60;99.90
12971;DHT22;6550;48.650;8.774;2024-03-25T06:16:28;8.10;99.90
12971;DHT22;6550;48.650;8.774;2024-03-25T06:18:56;7.50;99.90
12971;DHT22;6550;48.650;8.774;2024-03-25T06:21:24;7.40;99.90
12971;DHT22;6550;48.650;8.774;2024-03-25T06:23:50;7.40;99.90
12971;DHT22;6550;48.650;8.774;2024-03-25T06:26:16;7.40;99.90
12971;DHT22;6550;48.650;8.774;2024-03-25T06:28:41;7.40;99.90
12971;DHT22;6550;48.650;8.774;2024-03-25T06:31:10;7.40;99.90
12971;DHT22;6550;48.650;8.774;2024-03-25T06:33:57;7.60;99.90
12971;DHT22;6550;48.650;8.774;2024-03-25T06:36:41;7.50;99.90
12971;DHT22;6550;48.650;8.774;2024-03-25T06:39:07;7.50;99.90
12971;DHT22;6550;48.650;8.774;2024-03-25T06:41:36;7.50;99.90
12971;DHT22;6550;48.650;8.774;2024-03-25T06:44:07;7.60;99.90
12971;DHT22;6550;48.650;8.774;2024-03-25T06:46:33;8.10;99.90
12971;DHT22;6550;48.650;8.774;2024-03-25T06:48:59;7.90;99.90
12971;DHT22;6550;48.650;8.774;2024-03-25T06:51:27;7.90;99.90
12971;DHT22;6550;48.650;8.774;2024-03-25T06:53:53;7.90;99.90
12971;DHT22;6550;48.650;8.774;2024-03-25T06:56:19;8.00;99.90
12971;DHT22;6550;48.650;8.774;2024-03-25T06:58:45;8.20;99.90
12971;DHT22;6550;48.650;8.774;2024-03-25T07:01:13;8.10;99.90
12971;DHT22;6550;48.650;8.774;2024-03-25T07:03:43;9.10;99.90
12971;DHT22;6550;48.650;8.774;2024-03-25T07:06:09;8.30;99.90
12971;DHT22;6550;48.650;8.774;2024-03-25T07:08:35;8.80;99.90
12971;DHT22;6550;48.650;8.774;2024-03-25T07:11:03;8.50;99.90
12971;DHT22;6550;48.650;8.774;2024-03-25T07:13:28;8.70;99.90
12971;DHT22;6550;48.650;8.774;2024-03-25T07:15:54;8.60;99.90
12971;DHT22;6550;48.650;8.774;2024-03-25T07:18:23;9.90;99.90
12971;DHT22;6550;48.650;8.774;2024-03-25T07:20:51;8.70;99.90
12971;DHT22;6550;48.650;8.774;2024-03-25T07:25:44;8.90;99.90
12971;DHT22;6550;48.650;8.774;2024-03-25T07:28:12;9.00;99.90
12971;DHT22;6550;48.650;8.774;2024-03-25T07:30:38;9.20;99.90
12971;DHT22;6550;48.650;8.774;2024-03-25T07:33:04;9.00;99.90
12971;DHT22;6550;48.650;8.774;2024-03-25T07:35:30;9.10;99.90
12971;DHT22;6550;48.650;8.774;2024-03-25T07:37:56;9.30;99.90
12971;DHT22;6550;48.650;8.774;2024-03-25T07:40:22;9.30;99.90
12971;DHT22;6550;48.650;8.774;2024-03-25T07:42:48;9.40;99.90
12971;DHT22;6550;48.650;8.774;2024-03-25T07:45:19;9.60;99.90
12971;DHT22;6550;48.650;8.774;2024-03-25T07:47:47;9.90;99.90
12971;DHT22;6550;48.650;8.774;2024-03-25T07:50:15;10.30;99.90
12971;DHT22;6550;48.650;8.774;2024-03-25T07:52:43;10.70;99.90
12971;DHT22;6550;48.650;8.774;2024-03-25T07:55:09;10.50;99.90
12971;DHT22;6550;48.650;8.774;2024-03-25T07:57:35;11.20;99.90
12971;DHT22;6550;48.650;8.774;2024-03-25T08:00:02;12.30;99.90
12971;DHT22;6550;48.650;8.774;2024-03-25T08:02:33;11.40;99.90
12971;DHT22;6550;48.650;8.774;2024-03-25T08:04:58;12.10;99.90
12971;DHT22;6550;48.650;8.774;2024-03-25T08:07:24;12.20;99.90
12971;DHT22;6550;48.650;8.774;2024-03-25T08:09:52;12.40;99.90
12971;DHT22;6550;48.650;8.774;2024-03-25T08:14:44;12.80;99.90
12971;DHT22;6550;48.650;8.774;2024-03-25T08:17:10;13.30;99.90
12971;DHT22;6550;48.650;8.774;2024-03-25T08:22:07;13.30;99.90
12971;DHT22;6550;48.650;8.774;2024-03-25T08:24:35;13.70;99.90
12971;DHT22;6550;48.650;8.774;2024-03-25T08:27:01;13.70;99.90
12971;DHT22;6550;48.650;8.774;2024-03-25T08:29:26;13.70;99.90
12971;DHT22;6550;48.650;8.774;2024-03-25T08:36:48;14.20;99.90
12971;DHT22;6550;48.650;8.774;2024-03-25T08:39:18;14.60;99.90
12971;DHT22;6550;48.650;8.774;2024-03-25T08:41:44;15.00;99.90
12971;DHT22;6550;48.650;8.774;2024-03-25T08:44:10;15.00;99.90
12971;DHT22;6550;48.650;8.774;2024-03-25T08:46:58;15.10;99.90
12971;DHT22;6550;48.650;8.774;2024-03-25T08:49:39;15.10;99.90
12971;DHT22;6550;48.650;8.774;2024-03-25T08:52:23;15.60;99.90
12971;DHT22;6550;48.650;8.774;2024-03-25T08:54:50;15.70;99.60
12971;DHT22;6550;48.650;8.774;2024-03-25T08:57:21;15.80;99.90
12971;DHT22;6550;48.650;8.774;2024-03-25T09:02:13;16.30;99.90
12971;DHT22;6550;48.650;8.774;2024-03-25T09:04:41;16.20;99.90
12971;DHT22;6550;48.650;8.774;2024-03-25T09:07:09;16.20;98.30
12971;DHT22;6550;48.650;8.774;2024-03-25T09:09:35;16.70;99.60
12971;DHT22;6550;48.650;8.774;2024-03-25T09:12:20;16.40;98.80
12971;DHT22;6550;48.650;8.774;2024-03-25T09:14:47;17.10;98.70
12971;DHT22;6550;48.650;8.774;2024-03-25T09:17:42;17.00;98.60
12971;DHT22;6550;48.650;8.774;2024-03-25T09:20:10;17.30;98.40
12971;DHT22;6550;48.650;8.774;2024-03-25T09:22:47;17.10;96.60
12971;DHT22;6550;48.650;8.774;2024-03-25T09:25:19;17.10;98.10
12971;DHT22;6550;48.650;8.774;2024-03-25T09:27:48;16.80;98.00
12971;DHT22;6550;48.650;8.774;2024-03-25T09:30:17;16.50;97.20
12971;DHT22;6550;48.650;8.774;2024-03-25T09:32:49;16.30;97.40
12971;DHT22;6550;48.650;8.774;2024-03-25T09:35:15;16.20;97.10
12971;DHT22;6550;48.650;8.774;2024-03-25T09:37:41;16.70;96.70
12971;DHT22;6550;48.650;8.774;2024-03-25T09:40:07;16.40;96.80
12971;DHT22;6550;48.650;8.774;2024-03-25T09:42:42;16.30;96.60
12971;DHT22;6550;48.650;8.774;2024-03-25T09:45:15;16.00;97.20
12971;DHT22;6550;48.650;8.774;2024-03-25T09:47:45;15.90;96.80
12971;DHT22;6550;48.650;8.774;2024-03-25T09:50:13;15.80;97.00
12971;DHT22;6550;48.650;8.774;2024-03-25T09:52:42;16.20;96.50
12971;DHT22;6550;48.650;8.774;2024-03-25T09:55:10;16.20;95.50
12971;DHT22;6550;48.650;8.774;2024-03-25T09:57:36;16.50;96.10
12971;DHT22;6550;48.650;8.774;2024-03-25T10:00:07;16.80;95.70
12971;DHT22;6550;48.650;8.774;2024-03-25T10:02:43;16.90;94.00
12971;DHT22;6550;48.650;8.774;2024-03-25T10:05:12;17.30;95.30
12971;DHT22;6550;48.650;8.774;2024-03-25T10:07:38;17.80;94.00
12971;DHT22;6550;48.650;8.774;2024-03-25T10:10:07;17.60;94.40
12971;DHT22;6550;48.650;8.774;2024-03-25T10:12:36;17.80;94.40
12971;DHT22;6550;48.650;8.774;2024-03-25T10:15:03;18.20;94.90
12971;DHT22;6550;48.650;8.774;2024-03-25T10:17:31;18.30;94.30
12971;DHT22;6550;48.650;8.774;2024-03-25T10:19:57;18.70;93.80
12971;DHT22;6550;48.650;8.774;2024-03-25T10:22:25;19.20;92.70
12971;DHT22;6550;48.650;8.774;2024-03-25T10:24:52;18.90;92.10
12971;DHT22;6550;48.650;8.774;2024-03-25T10:27:27;19.10;92.00
12971;DHT22;6550;48.650;8.774;2024-03-25T10:29:54;19.30;91.50
12971;DHT22;6550;48.650;8.774;2024-03-25T10:32:23;19.50;92.00
12971;DHT22;6550;48.650;8.774;2024-03-25T10:35:18;19.70;91.90
12971;DHT22;6550;48.650;8.774;2024-03-25T10:37:44;19.80;90.90
12971;DHT22;6550;48.650;8.774;2024-03-25T10:40:12;20.30;92.50
12971;DHT22;6550;48.650;8.774;2024-03-25T10:42:41;20.10;91.50
12971;DHT22;6550;48.650;8.774;2024-03-25T10:45:09;20.20;91.10
12971;DHT22;6550;48.650;8.774;2024-03-25T10:47:36;20.40;90.40
12971;DHT22;6550;48.650;8.774;2024-03-25T10:50:08;20.50;91.80
12971;DHT22;6550;48.650;8.774;2024-03-25T10:52:40;20.50;90.70
12971;DHT22;6550;48.650;8.774;2024-03-25T10:55:07;20.70;90.30
12971;DHT22;6550;48.650;8.774;2024-03-25T10:57:35;20.60;90.30
12971;DHT22;6550;48.650;8.774;2024-03-25T11:00:02;20.50;90.20
12971;DHT22;6550;48.650;8.774;2024-03-25T11:02:30;20.70;88.20
12971;DHT22;6550;48.650;8.774;2024-03-25T11:04:59;20.70;89.80
12971;DHT22;6550;48.650;8.774;2024-03-25T11:07:31;20.80;87.40
12971;DHT22;6550;48.650;8.774;2024-03-25T11:10:04;21.10;87.00
12971;DHT22;6550;48.650;8.774;2024-03-25T11:12:40;21.30;86.20
12971;DHT22;6550;48.650;8.774;2024-03-25T11:15:09;21.40;86.10
12971;DHT22;6550;48.650;8.774;2024-03-25T11:17:36;21.20;85.40
12971;DHT22;6550;48.650;8.774;2024-03-25T11:20:11;21.20;84.70
12971;DHT22;6550;48.650;8.774;2024-03-25T11:22:51;21.10;83.70
12971;DHT22;6550;48.650;8.774;2024-03-25T11:25:21;21.10;84.50
12971;DHT22;6550;48.650;8.774;2024-03-25T11:27:47;21.20;83.60
12971;DHT22;6550;48.650;8.774;2024-03-25T11:30:16;21.00;82.30
12971;DHT22;6550;48.650;8.774;2024-03-25T11:33:02;21.20;81.70
12971;DHT22;6550;48.650;8.774;2024-03-25T11:35:29;21.20;81.90
12971;DHT22;6550;48.650;8.774;2024-03-25T11:37:54;21.50;83.00
12971;DHT22;6550;48.650;8.774;2024-03-25T11:40:20;21.10;82.40
12971;DHT22;6550;48.650;8.774;2024-03-25T11:42:48;21.30;82.90
12971;DHT22;6550;48.650;8.774;2024-03-25T11:45:21;21.30;81.10
12971;DHT22;6550;48.650;8.774;2024-03-25T11:47:49;21.50;80.70
12971;DHT22;6550;48.650;8.774;2024-03-25T11:50:16;21.40;80.10
12971;DHT22;6550;48.650;8.774;2024-03-25T11:52:43;21.60;80.30
12971;DHT22;6550;48.650;8.774;2024-03-25T11:55:09;21.50;79.20
12971;DHT22;6550;48.650;8.774;2024-03-25T11:57:37;21.40;79.70
12971;DHT22;6550;48.650;8.774;2024-03-25T12:00:04;21.60;78.60
12971;DHT22;6550;48.650;8.774;2024-03-25T12:02:36;21.30;78.80
12971;DHT22;6550;48.650;8.774;2024-03-25T12:05:05;21.20;78.20
12971;DHT22;6550;48.650;8.774;2024-03-25T12:07:34;21.30;78.80
12971;DHT22;6550;48.650;8.774;2024-03-25T12:12:47;21.40;78.60
12971;DHT22;6550;48.650;8.774;2024-03-25T12:15:16;21.50;78.60
12971;DHT22;6550;48.650;8.774;2024-03-25T12:17:45;21.10;78.40
12971;DHT22;6550;48.650;8.774;2024-03-25T12:20:14;21.50;78.70
12971;DHT22;6550;48.650;8.774;2024-03-25T12:22:43;21.40;77.60
12971;DHT22;6550;48.650;8.774;2024-03-25T12:27:37;21.70;77.70
12971;DHT22;6550;48.650;8.774;2024-03-25T12:30:09;21.80;78.00
12971;DHT22;6550;48.650;8.774;2024-03-25T12:37:40;21.80;75.80
12971;DHT22;6550;48.650;8.774;2024-03-25T12:40:10;21.80;77.50
12971;DHT22;6550;48.650;8.774;2024-03-25T12:42:42;22.20;78.40
12971;DHT22;6550;48.650;8.774;2024-03-25T12:45:08;21.50;78.00
12971;DHT22;6550;48.650;8.774;2024-03-25T12:47:36;21.70;77.90
12971;DHT22;6550;48.650;8.774;2024-03-25T12:50:07;21.30;76.80
12971;DHT22;6550;48.650;8.774;2024-03-25T12:52:34;21.30;77.40
12971;DHT22;6550;48.650;8.774;2024-03-25T12:55:02;21.40;78.00
12971;DHT22;6550;48.650;8.774;2024-03-25T12:57:29;21.10;77.70
12971;DHT22;6550;48.650;8.774;2024-03-25T12:59:55;21.40;77.70
12971;DHT22;6550;48.650;8.774;2024-03-25T13:02:23;21.20;77.30
12971;DHT22;6550;48.650;8.774;2024-03-25T13:04:52;21.00;79.00
12971;DHT22;6550;48.650;8.774;2024-03-25T13:09:46;21.20;77.20
12971;DHT22;6550;48.650;8.774;2024-03-25T13:14:38;21.20;80.10
12971;DHT22;6550;48.650;8.774;2024-03-25T13:17:04;21.00;78.70
12971;DHT22;6550;48.650;8.774;2024-03-25T13:19:33;21.30;78.60
12971;DHT22;6550;48.650;8.774;2024-03-25T13:22:01;21.00;78.40
12971;DHT22;6550;48.650;8.774;2024-03-25T13:24:27;20.70;77.40
12971;DHT22;6550;48.650;8.774;2024-03-25T13:26:53;20.60;77.50
12971;DHT22;6550;48.650;8.774;2024-03-25T13:29:19;20.50;77.50
12971;DHT22;6550;48.650;8.774;2024-03-25T13:31:45;20.50;78.50
12971;DHT22;6550;48.650;8.774;2024-03-25T13:36:37;20.30;79.20
12971;DHT22;6550;48.650;8.774;2024-03-25T13:39:03;20.30;79.00
12971;DHT22;6550;48.650;8.774;2024-03-25T13:41:29;20.50;79.60
12971;DHT22;6550;48.650;8.774;2024-03-25T13:46:21;19.60;80.20
12971;DHT22;6550;48.650;8.774;2024-03-25T13:51:18;19.30;80.00
12971;DHT22;6550;48.650;8.774;2024-03-25T13:53:46;19.40;80.60
12971;DHT22;6550;48.650;8.774;2024-03-25T13:56:12;19.20;80.60
12971;DHT22;6550;48.650;8.774;2024-03-25T13:58:38;19.20;80.30
12971;DHT22;6550;48.650;8.774;2024-03-25T14:01:09;19.10;80.80
12971;DHT22;6550;48.650;8.774;2024-03-25T14:03:35;18.80;81.10
12971;DHT22;6550;48.650;8.774;2024-03-25T14:06:06;18.80;82.00
12971;DHT22;6550;48.650;8.774;2024-03-25T14:08:36;18.70;78.60
12971;DHT22;6550;48.650;8.774;2024-03-25T14:15:55;18.30;80.20
12971;DHT22;6550;48.650;8.774;2024-03-25T14:18:26;18.10;81.40
12971;DHT22;6550;48.650;8.774;2024-03-25T14:23:19;18.30;82.80
12971;DHT22;6550;48.650;8.774;2024-03-25T14:25:46;18.20;81.80
12971;DHT22;6550;48.650;8.774;2024-03-25T14:28:15;18.10;81.00
12971;DHT22;6550;48.650;8.774;2024-03-25T14:30:43;18.10;80.80
12971;DHT22;6550;48.650;8.774;2024-03-25T14:33:11;18.10;80.80
12971;DHT22;6550;48.650;8.774;2024-03-25T14:35:38;18.00;81.40
12971;DHT22;6550;48.650;8.774;2024-03-25T14:38:06;18.20;82.60
12971;DHT22;6550;48.650;8.774;2024-03-25T14:40:38;17.90;81.80
12971;DHT22;6550;48.650;8.774;2024-03-25T14:43:06;18.10;81.40
12971;DHT22;6550;48.650;8.774;2024-03-25T14:45:32;18.10;79.20
12971;DHT22;6550;48.650;8.774;2024-03-25T14:50:27;18.10;80.10
12971;DHT22;6550;48.650;8.774;2024-03-25T14:52:52;18.00;80.40
12971;DHT22;6550;48.650;8.774;2024-03-25T14:55:18;18.00;80.00
12971;DHT22;6550;48.650;8.774;2024-03-25T15:00:13;18.10;82.40
12971;DHT22;6550;48.650;8.774;2024-03-25T15:02:39;18.10;82.00
12971;DHT22;6550;48.650;8.774;2024-03-25T15:05:05;18.20;81.50
12971;DHT22;6550;48.650;8.774;2024-03-25T15:07:31;18.20;81.40
12971;DHT22;6550;48.650;8.774;2024-03-25T15:09:57;18.10;78.90
12971;DHT22;6550;48.650;8.774;2024-03-25T15:12:25;18.10;81.20
12971;DHT22;6550;48.650;8.774;2024-03-25T15:14:54;18.20;80.80
12971;DHT22;6550;48.650;8.774;2024-03-25T15:17:25;18.30;81.80
12971;DHT22;6550;48.650;8.774;2024-03-25T15:19:58;18.20;81.40
12971;DHT22;6550;48.650;8.774;2024-03-25T15:22:27;18.20;81.70
12971;DHT22;6550;48.650;8.774;2024-03-25T15:24:53;18.20;81.90
12971;DHT22;6550;48.650;8.774;2024-03-25T15:27:18;18.20;82.60
12971;DHT22;6550;48.650;8.774;2024-03-25T15:29:45;18.30;82.30
12971;DHT22;6550;48.650;8.774;2024-03-25T15:32:10;18.10;80.70
12971;DHT22;6550;48.650;8.774;2024-03-25T15:34:39;18.10;80.20
12971;DHT22;6550;48.650;8.774;2024-03-25T15:42:02;18.20;79.10
12971;DHT22;6550;48.650;8.774;2024-03-25T15:46:56;18.10;80.10
12971;DHT22;6550;48.650;8.774;2024-03-25T15:49:22;18.10;81.20
12971;DHT22;6550;48.650;8.774;2024-03-25T15:51:48;18.00;82.70
12971;DHT22;6550;48.650;8.774;2024-03-25T15:54:16;18.10;81.70
12971;DHT22;6550;48.650;8.774;2024-03-25T15:56:42;18.10;81.70
12971;DHT22;6550;48.650;8.774;2024-03-25T15:59:10;18.10;83.20
12971;DHT22;6550;48.650;8.774;2024-03-25T16:01:38;18.10;82.60
12971;DHT22;6550;48.650;8.774;2024-03-25T16:04:04;18.00;81.60
12971;DHT22;6550;48.650;8.774;2024-03-25T16:06:30;18.00;80.90
12971;DHT22;6550;48.650;8.774;2024-03-25T16:08:56;18.00;81.60
12971;DHT22;6550;48.650;8.774;2024-03-25T16:11:22;18.00;81.10
12971;DHT22;6550;48.650;8.774;2024-03-25T16:13:48;18.20;83.30
12971;DHT22;6550;48.650;8.774;2024-03-25T16:16:14;17.90;82.60
12971;DHT22;6550;48.650;8.774;2024-03-25T16:18:44;18.00;84.10
12971;DHT22;6550;48.650;8.774;2024-03-25T16:21:14;17.70;84.40
12971;DHT22;6550;48.650;8.774;2024-03-25T16:23:42;18.00;84.20
12971;DHT22;6550;48.650;8.774;2024-03-25T16:28:36;18.10;83.70
12971;DHT22;6550;48.650;8.774;2024-03-25T16:31:02;18.30;84.30
12971;DHT22;6550;48.650;8.774;2024-03-25T16:33:30;18.10;83.40
12971;DHT22;6550;48.650;8.774;2024-03-25T16:35:58;18.00;83.80
12971;DHT22;6550;48.650;8.774;2024-03-25T16:38:24;17.90;84.40
12971;DHT22;6550;48.650;8.774;2024-03-25T16:40:52;18.00;84.30
12971;DHT22;6550;48.650;8.774;2024-03-25T16:43:18;18.00;84.10
12971;DHT22;6550;48.650;8.774;2024-03-25T16:45:44;17.80;85.70
12971;DHT22;6550;48.650;8.774;2024-03-25T16:48:10;18.00;84.40
12971;DHT22;6550;48.650;8.774;2024-03-25T16:50:41;18.00;84.90
12971;DHT22;6550;48.650;8.774;2024-03-25T16:53:10;17.80;84.80
12971;DHT22;6550;48.650;8.774;2024-03-25T16:55:41;17.70;84.50
12971;DHT22;6550;48.650;8.774;2024-03-25T16:58:07;17.50;85.90
12971;DHT22;6550;48.650;8.774;2024-03-25T17:00:33;17.30;86.00
12971;DHT22;6550;48.650;8.774;2024-03-25T17:03:02;17.10;86.40
12971;DHT22;6550;48.650;8.774;2024-03-25T17:05:28;16.90;86.60
12971;DHT22;6550;48.650;8.774;2024-03-25T17:07:56;16.80;86.90
12971;DHT22;6550;48.650;8.774;2024-03-25T17:15:15;16.40;87.10
12971;DHT22;6550;48.650;8.774;2024-03-25T17:17:43;16.20;88.00
12971;DHT22;6550;48.650;8.774;2024-03-25T17:20:09;16.10;88.00